Time;durP1;ratioP1;P1;durP2;ratioP2;P2;SDS_P1;SDS_P2;PMS_P1;PMS_P2;Temp;Humidity;BMP_temperature;BMP_pressure;BME280_temperature;BME280_humidity;BME280_pressure;Samples;Min_cycle;Max_cycle;Signal;HPM_P1;HPM_P2
2023/12/07 00:04:54;;;;;;;29.10;16.33;;;;;;;1.60;100.00;101793.50;10411656;28;20061;-75
2023/12/07 00:09:55;;;;;;;23.25;15.48;;;;;;;1.61;100.00;101787.03;10409390;28;20051;-75
2023/12/07 00:14:55;;;;;;;26.53;16.27;;;;;;;1.60;100.00;101793.50;10442256;28;20037;-75
2023/12/07 00:19:56;;;;;;;27.10;16.00;;;;;;;1.61;100.00;101778.88;10442583;28;20037;-75
2023/12/07 00:24:56;;;;;;;25.50;15.03;;;;;;;1.62;100.00;101791.44;10425761;28;20036;-75
2023/12/07 00:29:57;;;;;;;27.17;16.00;;;;;;;1.09;100.00;101696.06;10409382;28;20036;-74
2023/12/07 00:34:57;;;;;;;29.93;17.63;;;;;;;1.65;100.00;101793.81;10408572;28;20048;-74
2023/12/07 00:39:58;;;;;;;22.27;13.93;;;;;;;1.58;100.00;101777.38;10408894;28;20160;-75
2023/12/07 00:44:58;;;;;;;22.57;14.30;;;;;;;1.59;100.00;101783.63;10408067;28;20065;-75
2023/12/07 00:49:59;;;;;;;27.60;14.47;;;;;;;1.53;100.00;101770.75;10404875;28;20091;-76
2023/12/07 00:54:59;;;;;;;27.60;15.65;;;;;;;1.59;100.00;101791.78;10391584;28;20037;-76
2023/12/07 00:59:59;;;;;;;19.47;13.27;;;;;;;1.53;100.00;101787.03;10419617;28;20041;-75
2023/12/07 01:05:00;;;;;;;28.33;15.70;;;;;;;1.56;100.00;101794.84;10415806;28;20052;-75
2023/12/07 01:10:00;;;;;;;24.40;14.77;;;;;;;1.63;100.00;101803.97;10411264;28;20551;-74
2023/12/07 01:15:01;;;;;;;24.48;14.70;;;;;;;1.57;100.00;101800.13;10458218;28;20052;-74
2023/12/07 01:20:03;;;;;;;21.50;14.93;;;;;;;1.62;100.00;101818.59;10407490;28;20033;-75
2023/12/07 01:25:05;;;;;;;22.43;14.17;;;;;;;1.61;100.00;101827.75;10424268;28;20041;-75
2023/12/07 01:30:06;;;;;;;26.57;15.37;;;;;;;1.60;100.00;101831.50;10457103;28;20060;-75
2023/12/07 01:35:07;;;;;;;23.70;13.97;;;;;;;1.57;100.00;101821.81;10422621;28;20132;-74
2023/12/07 01:40:10;;;;;;;26.60;15.13;;;;;;;1.49;100.00;101807.41;10423464;28;20109;-75
2023/12/07 01:45:10;;;;;;;22.15;14.70;;;;;;;1.51;100.00;101817.09;10436998;28;20579;-75
2023/12/07 01:50:11;;;;;;;24.13;14.53;;;;;;;1.55;100.00;101828.44;10404907;28;20056;-75
2023/12/07 01:55:11;;;;;;;24.53;14.03;;;;;;;1.53;100.00;101834.03;10405746;28;20049;-75
2023/12/07 02:00:13;;;;;;;24.05;14.02;;;;;;;1.54;100.00;101838.44;10423978;28;20041;-74
2023/12/07 02:05:14;;;;;;;22.70;14.10;;;;;;;1.51;100.00;101832.50;10381716;28;20029;-75
2023/12/07 02:10:15;;;;;;;28.30;14.37;;;;;;;1.52;100.00;101839.63;10415914;28;20044;-76
2023/12/07 02:15:15;;;;;;;27.85;14.40;;;;;;;1.54;100.00;101840.31;10428229;28;20047;-74
2023/12/07 02:20:28;;;;;;;20.75;13.18;;;;;;;1.52;100.00;101840.47;10414328;28;20378;-75
2023/12/07 02:25:56;;;;;;;22.77;12.97;;;;;;;1.48;100.00;101825.56;10431245;28;20048;-75
2023/12/07 02:30:57;;;;;;;20.75;13.05;;;;;;;1.53;100.00;101838.59;10423070;28;20041;-74
2023/12/07 02:35:57;;;;;;;24.52;14.55;;;;;;;1.52;100.00;101834.22;10412618;28;20071;-75
2023/12/07 02:40:58;;;;;;;23.53;14.03;;;;;;;1.47;100.00;101820.28;10446979;28;20068;-74
2023/12/07 02:45:58;;;;;;;22.03;13.97;;;;;;;1.45;100.00;101823.19;10396777;28;20091;-75
2023/12/07 02:50:59;;;;;;;22.50;14.13;;;;;;;1.43;100.00;101827.94;10427138;28;20584;-74
2023/12/07 02:55:59;;;;;;;23.70;13.60;;;;;;;1.44;100.00;101842.34;10447150;28;20032;-73
2023/12/07 03:01:00;;;;;;;21.40;13.27;;;;;;;1.42;100.00;101840.66;10444895;28;20036;-74
2023/12/07 03:06:00;;;;;;;22.47;13.53;;;;;;;1.41;100.00;101835.41;10412301;28;20044;-75
2023/12/07 03:11:01;;;;;;;27.00;14.03;;;;;;;1.40;100.00;101839.13;10462005;28;20041;-75
2023/12/07 03:16:01;;;;;;;22.17;14.03;;;;;;;1.40;100.00;101833.69;10425944;28;20507;-75
2023/12/07 03:21:03;;;;;;;21.58;13.27;;;;;;;1.41;100.00;101843.56;10426375;28;20466;-75
2023/12/07 03:26:03;;;;;;;20.00;12.73;;;;;;;1.40;100.00;101836.41;10417337;28;20501;-75
2023/12/07 03:31:04;;;;;;;20.77;12.57;;;;;;;1.39;100.00;101843.72;10403575;28;20041;-75
2023/12/07 03:36:04;;;;;;;18.52;12.75;;;;;;;1.38;100.00;101844.72;10411592;28;20045;-76
2023/12/07 03:41:06;;;;;;;20.37;13.00;;;;;;;1.41;100.00;101844.41;10427050;28;20101;-75
2023/12/07 03:46:07;;;;;;;20.00;12.13;;;;;;;1.42;100.00;101846.06;10461194;28;20461;-75
2023/12/07 03:51:07;;;;;;;18.87;12.73;;;;;;;1.39;100.00;101846.44;10394626;28;20037;-75
2023/12/07 03:56:08;;;;;;;27.05;14.40;;;;;;;1.43;100.00;101846.94;10443644;28;20075;-75
2023/12/07 04:01:09;;;;;;;19.63;12.00;;;;;;;1.39;100.00;101832.84;10409360;28;20516;-75
2023/12/07 04:06:10;;;;;;;19.83;12.07;;;;;;;1.45;100.00;101844.91;10393507;28;20041;-74
2023/12/07 04:11:10;;;;;;;19.17;11.37;;;;;;;1.45;100.00;101842.19;10426648;28;20033;-75
2023/12/07 04:16:11;;;;;;;19.37;11.60;;;;;;;1.46;100.00;101848.47;10410807;28;20041;-76
2023/12/07 04:21:11;;;;;;;21.02;11.82;;;;;;;1.45;100.00;101850.34;10427081;28;20076;-72
2023/12/07 04:26:12;;;;;;;19.67;11.80;;;;;;;1.35;100.00;101839.66;10412579;28;20037;-75
2023/12/07 04:31:12;;;;;;;21.60;12.60;;;;;;;1.45;100.00;101850.34;10408020;28;20488;-75
2023/12/07 04:36:13;;;;;;;20.33;11.50;;;;;;;1.41;100.00;101860.66;10442039;28;20033;-75
2023/12/07 04:41:13;;;;;;;18.70;11.80;;;;;;;1.37;100.00;101858.47;10397394;28;20123;-75
2023/12/07 04:46:14;;;;;;;17.83;12.00;;;;;;;1.41;100.00;101865.25;10410282;28;20067;-75
2023/12/07 04:51:14;;;;;;;20.33;11.73;;;;;;;1.38;100.00;101869.13;10409237;28;20032;-75
2023/12/07 04:56:15;;;;;;;21.53;12.40;;;;;;;1.33;100.00;101857.97;10409338;28;20041;-75
2023/12/07 05:01:15;;;;;;;19.40;11.25;;;;;;;1.32;100.00;101861.66;10408802;28;20048;-75
2023/12/07 05:06:16;;;;;;;21.33;12.23;;;;;;;1.36;100.00;101857.59;10407987;28;20065;-75
2023/12/07 05:11:16;;;;;;;19.07;11.47;;;;;;;1.30;100.00;101852.88;10458521;28;20381;-74
2023/12/07 05:16:17;;;;;;;21.07;12.27;;;;;;;1.35;100.00;101868.66;10406448;28;20037;-74
2023/12/07 05:21:17;;;;;;;20.83;11.97;;;;;;;1.33;100.00;101857.97;10432084;28;20053;-75
2023/12/07 05:26:17;;;;;;;20.63;12.47;;;;;;;1.33;100.00;101863.38;10421942;28;20041;-75
2023/12/07 05:31:18;;;;;;;22.90;14.20;;;;;;;1.24;100.00;101850.84;10419455;28;20047;-75
2023/12/07 05:36:19;;;;;;;21.03;11.73;;;;;;;1.31;100.00;101875.44;10423610;28;20128;-75
2023/12/07 05:41:19;;;;;;;26.48;14.35;;;;;;;1.31;100.00;101870.84;10387572;28;20295;-75
2023/12/07 05:46:20;;;;;;;25.02;13.25;;;;;;;1.31;100.00;101865.41;10405506;28;20148;-75
2023/12/07 05:51:20;;;;;;;22.20;12.10;;;;;;;1.31;100.00;101864.56;10407547;28;20431;-75
2023/12/07 05:56:21;;;;;;;25.90;14.47;;;;;;;1.30;100.00;101862.88;10423480;28;20068;-75
2023/12/07 06:01:21;;;;;;;24.37;13.30;;;;;;;1.28;100.00;101865.78;10421139;28;20041;-75
2023/12/07 06:06:22;;;;;;;27.30;14.40;;;;;;;1.27;100.00;101866.78;10406658;28;20047;-75
2023/12/07 06:11:22;;;;;;;22.35;13.20;;;;;;;1.29;100.00;101870.16;10406645;28;20043;-74
2023/12/07 06:16:23;;;;;;;25.70;15.00;;;;;;;1.30;100.00;101869.16;10422295;28;20040;-75
2023/12/07 06:21:25;;;;;;;28.23;15.03;;;;;;;1.20;100.00;101858.47;10407083;28;20041;-75
2023/12/07 06:26:26;;;;;;;29.90;14.93;;;;;;;1.26;100.00;101873.22;10438095;28;20041;-75
2023/12/07 06:31:26;;;;;;;25.43;13.50;;;;;;;1.25;100.00;101866.09;10436560;28;20041;-75
2023/12/07 06:36:27;;;;;;;25.77;13.77;;;;;;;1.23;100.00;101861.84;10422850;28;20049;-74
2023/12/07 06:41:27;;;;;;;30.90;15.63;;;;;;;1.21;100.00;101871.00;10396128;28;20048;-75
2023/12/07 06:46:28;;;;;;;31.60;15.93;;;;;;;1.25;100.00;101876.94;10406314;28;20033;-74
2023/12/07 06:51:29;;;;;;;29.30;14.83;;;;;;;1.18;100.00;101865.09;10407174;28;20033;-75
2023/12/07 06:56:29;;;;;;;31.50;16.17;;;;;;;1.16;100.00;101867.97;10404560;28;20056;-75
2023/12/07 07:01:29;;;;;;;32.30;15.80;;;;;;;1.21;100.00;101886.44;10410074;28;20140;-75
2023/12/07 07:06:30;;;;;;;29.20;14.80;;;;;;;1.21;100.00;101894.56;10409841;28;20106;-75
2023/12/07 07:11:30;;;;;;;27.77;14.03;;;;;;;1.18;100.00;101892.22;10428750;28;20420;-74
2023/12/07 07:16:31;;;;;;;30.70;15.60;;;;;;;1.18;100.00;101903.06;10445307;28;20075;-75
2023/12/07 07:21:31;;;;;;;32.73;16.20;;;;;;;1.13;100.00;101892.69;10430510;28;20040;-75
2023/12/07 07:26:32;;;;;;;33.22;16.02;;;;;;;1.20;100.00;101895.59;10398224;28;20033;-75
2023/12/07 07:31:32;;;;;;;32.77;15.70;;;;;;;1.14;100.00;101896.28;10434779;28;20466;-75
2023/12/07 07:36:33;;;;;;;32.53;14.93;;;;;;;1.19;100.00;101899.31;10410948;28;20053;-75
2023/12/07 07:41:35;;;;;;;31.33;15.20;;;;;;;1.23;100.00;101905.25;10398988;28;20033;-75
2023/12/07 07:46:35;;;;;;;37.90;16.30;;;;;;;1.24;100.00;101907.81;10425880;28;20371;-74
2023/12/07 07:51:36;;;;;;;33.22;16.48;;;;;;;1.25;100.00;101909.50;10463192;28;20129;-75
2023/12/07 07:56:36;;;;;;;34.07;16.87;;;;;;;1.29;100.00;101905.44;10452269;28;20055;-75
2023/12/07 08:01:37;;;;;;;28.35;15.48;;;;;;;1.32;100.00;101910.50;10424908;28;20090;-74
2023/12/07 08:06:37;;;;;;;30.93;16.80;;;;;;;1.30;100.00;101907.16;10426747;28;20048;-75
2023/12/07 08:11:37;;;;;;;28.48;16.08;;;;;;;1.38;100.00;101914.44;10405328;28;20041;-75
2023/12/07 08:16:38;;;;;;;29.30;14.43;;;;;;;1.37;100.00;101912.75;10436594;28;20040;-74
2023/12/07 08:21:38;;;;;;;28.53;16.50;;;;;;;1.42;100.00;101924.75;10409646;28;20036;-74
2023/12/07 08:26:39;;;;;;;28.97;15.30;;;;;;;1.50;100.00;101923.09;10425819;28;20320;-76
2023/12/07 08:31:43;;;;;;;31.57;15.87;;;;;;;1.57;100.00;101921.38;10425278;28;20041;-76
2023/12/07 08:36:43;;;;;;;28.58;14.88;;;;;;;1.64;100.00;101914.28;10442016;28;20524;-75
2023/12/07 08:41:44;;;;;;;35.73;16.07;;;;;;;1.73;100.00;101907.81;10409221;28;20033;-75
2023/12/07 08:46:45;;;;;;;32.17;15.30;;;;;;;1.83;100.00;101914.94;10425407;28;20412;-75
2023/12/07 08:51:45;;;;;;;30.88;15.02;;;;;;;1.81;100.00;101905.09;10442763;28;20048;-76
2023/12/07 08:56:46;;;;;;;29.10;16.27;;;;;;;1.84;100.00;101903.91;10410892;28;20040;-74
2023/12/07 09:01:46;;;;;;;34.25;16.85;;;;;;;1.92;100.00;101900.31;10421426;28;20037;-74
2023/12/07 09:06:47;;;;;;;41.87;20.47;;;;;;;2.01;100.00;101904.75;10423809;28;20041;-75
2023/12/07 09:11:47;;;;;;;40.15;19.40;;;;;;;2.09;100.00;101910.16;10407985;28;20099;-75
2023/12/07 09:16:48;;;;;;;35.55;18.38;;;;;;;2.17;100.00;101909.28;10408349;28;20096;-74
2023/12/07 09:21:48;;;;;;;30.60;17.38;;;;;;;2.12;100.00;101915.22;10457574;28;20033;-74
2023/12/07 09:26:49;;;;;;;34.00;18.23;;;;;;;2.02;100.00;101911.84;10446610;28;20039;-74
2023/12/07 09:31:49;;;;;;;32.60;17.60;;;;;;;1.94;100.00;101909.16;10443058;28;20037;-75
2023/12/07 09:36:49;;;;;;;33.57;19.50;;;;;;;1.95;100.00;101916.28;10406179;28;20099;-75
2023/12/07 09:41:50;;;;;;;35.30;19.47;;;;;;;1.93;100.00;101929.19;10443801;28;20488;-74
2023/12/07 09:46:50;;;;;;;37.17;20.08;;;;;;;1.95;100.00;101932.59;10409996;28;20044;-74
2023/12/07 09:51:51;;;;;;;43.53;19.88;;;;;;;1.91;100.00;101917.66;10436242;28;20400;-74
2023/12/07 09:56:54;;;;;;;38.80;20.70;;;;;;;2.00;100.00;101936.47;10403342;28;20444;-75
2023/12/07 10:01:55;;;;;;;41.20;20.45;;;;;;;1.95;100.00;101922.56;10428392;28;20501;-74
2023/12/07 10:06:56;;;;;;;38.58;18.98;;;;;;;2.05;100.00;101930.53;10388643;28;20029;-75
2023/12/07 10:12:03;;;;;;;33.25;18.48;;;;;;;2.00;100.00;101925.59;10406157;28;20037;-75
2023/12/07 10:17:04;;;;;;;35.17;19.43;;;;;;;1.99;100.00;101933.94;10405077;28;20033;-76
2023/12/07 10:22:12;;;;;;;33.63;18.77;;;;;;;1.97;100.00;101917.81;10431385;28;20044;-75
2023/12/07 10:27:13;;;;;;;29.70;18.17;;;;;;;1.94;100.00;101914.59;10438218;28;20047;-75
2023/12/07 10:32:13;;;;;;;35.70;19.38;;;;;;;1.89;100.00;101911.53;10426924;28;20040;-76
2023/12/07 10:37:14;;;;;;;34.00;17.10;;;;;;;2.01;100.00;101902.88;10441301;28;20045;-76
2023/12/07 10:42:14;;;;;;;41.72;19.38;;;;;;;2.06;100.00;101896.06;10399367;28;20684;-76
2023/12/07 10:47:14;;;;;;;34.45;18.70;;;;;;;2.18;100.00;101900.97;10432705;28;20044;-77
2023/12/07 10:52:15;;;;;;;38.47;18.93;;;;;;;2.39;100.00;101883.22;10452430;28;20037;-77
2023/12/07 10:57:16;;;;;;;35.10;19.10;;;;;;;2.60;100.00;101885.34;10408369;28;20040;-74
2023/12/07 11:02:16;;;;;;;31.77;17.97;;;;;;;2.84;100.00;101878.94;10425343;28;20850;-75
2023/12/07 11:07:19;;;;;;;31.30;18.60;;;;;;;2.93;100.00;101864.25;10414929;28;20087;-75
2023/12/07 11:12:47;;;;;;;34.47;18.70;;;;;;;3.00;100.00;101850.81;10440244;28;20039;-74
2023/12/07 11:17:54;;;;;;;31.00;19.40;;;;;;;3.22;100.00;101866.31;10447725;28;20044;-75
2023/12/07 11:22:56;;;;;;;31.02;18.65;;;;;;;3.35;100.00;101865.69;10463088;28;20049;-75
2023/12/07 11:28:03;;;;;;;32.50;18.13;;;;;;;3.53;100.00;101856.34;10402886;28;20098;-75
2023/12/07 11:33:04;;;;;;;35.42;18.08;;;;;;;3.41;100.00;101843.19;10432637;28;20048;-75
2023/12/07 11:38:07;;;;;;;34.78;19.65;;;;;;;3.60;100.00;101857.31;10417059;28;20029;-75
2023/12/07 11:43:35;;;;;;;34.45;19.23;;;;;;;3.74;100.00;101842.00;10417629;28;20044;-78
2023/12/07 11:48:36;;;;;;;35.65;20.00;;;;;;;3.58;100.00;101837.59;10421789;28;20049;-73
2023/12/07 11:53:36;;;;;;;32.38;17.27;;;;;;;3.02;100.00;101821.56;10408571;28;21201;-75
2023/12/07 11:58:37;;;;;;;34.78;19.60;;;;;;;2.80;100.00;101828.66;10408978;28;20040;-75
2023/12/07 12:03:38;;;;;;;36.25;20.00;;;;;;;2.56;100.00;101845.94;10404218;28;20041;-75
2023/12/07 12:08:40;;;;;;;37.28;19.98;;;;;;;2.33;100.00;101848.59;10415361;28;20057;-76
2023/12/07 12:13:40;;;;;;;34.22;18.08;;;;;;;2.11;100.00;101840.19;10382575;28;20497;-76
2023/12/07 12:18:41;;;;;;;29.63;18.08;;;;;;;1.75;100.00;101837.06;10399186;28;20033;-75
2023/12/07 12:23:43;;;;;;;30.83;17.93;;;;;;;1.66;100.00;101847.09;10421180;28;20037;-76
2023/12/07 12:28:43;;;;;;;34.23;18.73;;;;;;;1.48;100.00;101833.69;10408526;28;20045;-76
2023/12/07 12:33:44;;;;;;;53.40;20.97;;;;;;;1.34;100.00;101821.66;10403670;28;20052;-75
2023/12/07 12:38:47;;;;;;;38.70;19.35;;;;;;;1.39;100.00;101808.44;10418842;28;20045;-76
2023/12/07 12:43:47;;;;;;;35.13;18.67;;;;;;;1.27;100.00;101782.69;10405322;28;20124;-76
2023/12/07 12:48:58;;;;;;;38.05;19.98;;;;;;;1.41;100.00;101800.97;10390067;28;20554;-76
2023/12/07 12:53:59;;;;;;;37.67;20.63;;;;;;;1.30;100.00;101808.59;10424640;28;20029;-75
2023/12/07 12:58:59;;;;;;;39.40;19.70;;;;;;;1.28;100.00;101784.38;10419708;28;20558;-74
2023/12/07 13:04:00;;;;;;;40.13;20.00;;;;;;;1.03;100.00;101726.56;10407090;28;20041;-74
2023/12/07 13:09:00;;;;;;;48.38;22.58;;;;;;;1.23;100.00;101766.91;10414202;28;20048;-76
2023/12/07 13:14:06;;;;;;;52.63;22.60;;;;;;;1.15;100.00;101757.75;10404004;28;20037;-75
2023/12/07 13:19:07;;;;;;;53.45;21.30;;;;;;;1.17;100.00;101760.31;10425154;28;20095;-76
2023/12/07 13:24:12;;;;;;;46.73;21.60;;;;;;;1.18;100.00;101749.28;10432606;28;20045;-75
2023/12/07 13:29:12;;;;;;;60.90;22.40;;;;;;;1.07;100.00;101746.06;10421189;28;20052;-75
2023/12/07 13:34:13;;;;;;;62.53;21.97;;;;;;;0.92;100.00;101716.94;10434650;28;20056;-75
2023/12/07 13:39:14;;;;;;;67.93;24.13;;;;;;;1.08;100.00;101750.50;10404705;28;20048;-76
2023/12/07 13:44:18;;;;;;;61.53;25.20;;;;;;;1.10;100.00;101749.28;10420806;28;20052;-76
2023/12/07 13:49:18;;;;;;;60.57;23.33;;;;;;;0.88;100.00;101721.00;10403148;28;20041;-75
2023/12/07 13:54:19;;;;;;;71.40;26.20;;;;;;;1.05;100.00;101734.53;10419134;28;20033;-76
2023/12/07 13:59:19;;;;;;;72.40;24.02;;;;;;;0.96;100.00;101733.72;10420776;28;20057;-75
2023/12/07 14:04:19;;;;;;;70.10;24.40;;;;;;;0.92;100.00;101760.31;10405436;28;20040;-76
2023/12/07 14:09:21;;;;;;;81.33;26.40;;;;;;;0.88;100.00;101747.25;10408043;28;20037;-76
2023/12/07 14:14:21;;;;;;;94.93;26.63;;;;;;;0.83;100.00;101736.94;10385979;28;20141;-75
2023/12/07 14:19:22;;;;;;;110.90;25.83;;;;;;;0.86;100.00;101742.00;10397004;28;20037;-76
2023/12/07 14:24:26;;;;;;;73.73;24.83;;;;;;;0.78;100.00;101739.28;10453322;28;20033;-76
2023/12/07 14:29:26;;;;;;;109.40;24.80;;;;;;;0.82;100.00;101729.81;10393666;28;20040;-75
2023/12/07 14:34:27;;;;;;;81.80;24.73;;;;;;;0.80;100.00;101727.25;10404342;28;20409;-76
2023/12/07 14:39:27;;;;;;;122.93;28.27;;;;;;;0.80;100.00;101715.56;10436458;28;20029;-76
2023/12/07 14:44:28;;;;;;;112.27;30.27;;;;;;;0.82;100.00;101735.22;10403633;28;20041;-76
2023/12/07 14:49:29;;;;;;;92.20;28.40;;;;;;;0.85;100.00;101734.03;10406045;28;20072;-76
2023/12/07 14:54:30;;;;;;;131.90;29.47;;;;;;;0.83;100.00;101745.06;10434283;28;20051;-76
2023/12/07 14:59:31;;;;;;;93.60;28.07;;;;;;;0.87;100.00;101730.16;10420428;28;20029;-75
2023/12/07 15:04:31;;;;;;;101.75;29.23;;;;;;;0.80;100.00;101721.00;10436987;28;20390;-75
2023/12/07 15:09:34;;;;;;;113.60;31.93;;;;;;;0.79;100.00;101708.47;10393264;28;20037;-76
2023/12/07 15:14:35;;;;;;;101.87;28.67;;;;;;;0.82;100.00;101710.81;10385509;28;20037;-76
2023/12/07 15:19:35;;;;;;;126.37;31.27;;;;;;;0.83;100.00;101719.78;10419940;28;20033;-76
2023/12/07 15:24:36;;;;;;;105.93;30.47;;;;;;;0.82;100.00;101704.56;10408682;28;20041;-76
2023/12/07 15:29:40;;;;;;;110.97;31.13;;;;;;;0.81;100.00;101695.59;10443488;28;20033;-76
2023/12/07 15:34:40;;;;;;;108.53;30.97;;;;;;;0.80;100.00;101702.00;10397565;28;20055;-76
2023/12/07 15:39:41;;;;;;;123.90;34.40;;;;;;;0.80;100.00;101688.47;10451972;28;20033;-76
2023/12/07 15:44:42;;;;;;;127.07;36.40;;;;;;;0.73;100.00;101676.63;10424340;28;20040;-76
2023/12/07 15:49:43;;;;;;;125.40;36.55;;;;;;;0.78;100.00;101679.66;10424997;28;20056;-76
2023/12/07 15:54:44;;;;;;;127.57;37.43;;;;;;;0.82;100.00;101664.75;10409222;28;20064;-76
2023/12/07 15:59:45;;;;;;;134.70;34.60;;;;;;;0.86;100.00;101649.81;10417412;28;20036;-76
2023/12/07 16:04:48;;;;;;;129.40;35.53;;;;;;;0.85;100.00;101648.16;10410069;28;20045;-76
2023/12/07 16:09:49;;;;;;;120.63;35.97;;;;;;;0.83;100.00;101638.47;10423183;28;20567;-76
2023/12/07 16:14:51;;;;;;;113.50;36.80;;;;;;;0.77;100.00;101619.19;10457914;28;20033;-76
2023/12/07 16:19:51;;;;;;;112.87;35.10;;;;;;;0.80;100.00;101617.97;10408469;28;20122;-75
2023/12/07 16:24:52;;;;;;;123.70;36.07;;;;;;;0.78;100.00;101609.19;10390884;28;20059;-77
2023/12/07 16:29:53;;;;;;;130.57;37.57;;;;;;;0.72;100.00;101618.00;10408489;28;20045;-76
2023/12/07 16:34:54;;;;;;;130.23;35.90;;;;;;;0.76;100.00;101611.22;10418256;28;20030;-75
2023/12/07 16:39:54;;;;;;;112.87;34.17;;;;;;;0.66;100.00;101583.44;10408011;28;20037;-75
2023/12/07 16:44:55;;;;;;;122.30;36.93;;;;;;;0.66;100.00;101581.56;10427900;28;20048;-76
2023/12/07 16:49:56;;;;;;;131.23;40.03;;;;;;;0.68;100.00;101570.56;10481073;28;20052;-75
2023/12/07 16:54:58;;;;;;;111.57;34.43;;;;;;;0.67;100.00;101568.91;10426836;28;20033;-75
2023/12/07 16:59:58;;;;;;;114.97;36.50;;;;;;;0.58;100.00;101552.66;10427524;28;20473;-75
2023/12/07 17:04:59;;;;;;;113.07;34.47;;;;;;;0.63;100.00;101567.53;10409104;28;20037;-76
2023/12/07 17:10:00;;;;;;;115.93;35.87;;;;;;;0.53;100.00;101563.13;10423816;28;20033;-75
2023/12/07 17:15:00;;;;;;;117.57;34.63;;;;;;;0.55;100.00;101569.22;10407266;28;20040;-76
2023/12/07 17:20:02;;;;;;;111.10;37.50;;;;;;;0.50;100.00;101568.91;10404802;28;20033;-75
2023/12/07 17:25:06;;;;;;;118.43;34.90;;;;;;;0.47;100.00;101557.56;10418534;28;20438;-74
2023/12/07 17:30:07;;;;;;;116.00;39.30;;;;;;;0.47;100.00;101563.00;10433531;28;20044;-75
2023/12/07 17:35:08;;;;;;;103.20;34.77;;;;;;;0.49;100.00;101556.38;10399342;28;20052;-75
2023/12/07 17:40:09;;;;;;;104.10;33.57;;;;;;;0.50;100.00;101568.91;10422812;28;20098;-75
2023/12/07 17:45:09;;;;;;;99.17;32.07;;;;;;;0.49;100.00;101560.94;10431149;28;20461;-75
2023/12/07 17:50:10;;;;;;;109.83;32.70;;;;;;;0.47;100.00;101541.31;10408972;28;20052;-75
2023/12/07 17:55:10;;;;;;;103.73;34.87;;;;;;;0.39;100.00;101518.66;10415785;28;20047;-75
2023/12/07 18:00:11;;;;;;;107.07;34.30;;;;;;;0.45;100.00;101527.09;10417915;28;20037;-76
2023/12/07 18:05:12;;;;;;;113.30;33.47;;;;;;;0.42;100.00;101532.88;10401771;28;20097;-75
2023/12/07 18:10:14;;;;;;;102.40;37.30;;;;;;;0.36;100.00;101515.44;10435577;28;20040;-75
2023/12/07 18:15:17;;;;;;;98.50;33.20;;;;;;;0.35;100.00;101513.72;10410514;28;20056;-75
2023/12/07 18:20:18;;;;;;;100.38;35.53;;;;;;;0.27;100.00;101500.19;10419641;28;20041;-76
2023/12/07 18:25:18;;;;;;;100.17;34.00;;;;;;;0.38;100.00;101510.69;10421194;28;20505;-76
2023/12/07 18:30:18;;;;;;;117.27;39.50;;;;;;;0.42;100.00;101505.78;10407748;28;20043;-76
2023/12/07 18:35:19;;;;;;;108.70;38.13;;;;;;;0.11;100.00;101449.63;10403874;28;20037;-75
2023/12/07 18:40:20;;;;;;;96.30;34.67;;;;;;;0.31;100.00;101474.44;10403498;28;20045;-76
2023/12/07 18:45:20;;;;;;;99.07;34.80;;;;;;;0.34;100.00;101479.53;10403297;28;20044;-76
2023/12/07 18:50:20;;;;;;;100.65;33.10;;;;;;;0.31;100.00;101477.16;10426805;28;20067;-76
2023/12/07 18:55:21;;;;;;;99.73;35.60;;;;;;;0.25;100.00;101462.47;10410002;28;20069;-76
2023/12/07 19:00:22;;;;;;;103.63;35.53;;;;;;;0.34;100.00;101461.41;10411082;28;20057;-77
2023/12/07 19:05:23;;;;;;;103.33;38.73;;;;;;;0.38;100.00;101459.22;10442374;28;20416;-77
2023/12/07 19:10:23;;;;;;;106.03;34.73;;;;;;;0.33;100.00;101443.50;10393347;28;20060;-77
2023/12/07 19:15:25;;;;;;;99.30;34.90;;;;;;;0.36;100.00;101453.13;10423643;28;20052;-76
2023/12/07 19:20:25;;;;;;;105.27;36.87;;;;;;;0.44;100.00;101447.69;10426051;28;20041;-77
2023/12/07 19:25:27;;;;;;;104.33;36.97;;;;;;;0.48;100.00;101427.38;10427665;28;20051;-76
2023/12/07 19:30:27;;;;;;;207.23;79.77;;;;;;;0.43;100.00;101421.59;10396791;28;20044;-77
2023/12/07 19:35:28;;;;;;;107.03;39.10;;;;;;;0.40;100.00;101421.97;10392017;28;20087;-76
2023/12/07 19:40:29;;;;;;;123.22;39.83;;;;;;;0.41;100.00;101429.06;10407800;28;20060;-76
2023/12/07 19:45:30;;;;;;;118.93;37.30;;;;;;;0.36;100.00;101432.31;10408781;28;20047;-76
2023/12/07 19:50:31;;;;;;;117.80;38.77;;;;;;;0.30;100.00;101433.00;10422281;28;20057;-75
2023/12/07 19:55:31;;;;;;;113.80;41.83;;;;;;;0.23;100.00;101417.59;10420487;28;20397;-75
2023/12/07 20:00:32;;;;;;;117.50;39.30;;;;;;;0.13;100.00;101409.69;10431353;28;20048;-75
2023/12/07 20:05:32;;;;;;;111.00;36.47;;;;;;;-0.04;100.00;101389.94;10465462;28;20448;-75
2023/12/07 20:10:33;;;;;;;113.50;40.30;;;;;;;-0.02;100.00;101393.31;10410903;28;20045;-75
2023/12/07 20:15:34;;;;;;;115.43;41.67;;;;;;;-0.10;100.00;101394.16;10408138;28;20048;-76
2023/12/07 20:20:34;;;;;;;110.37;40.07;;;;;;;-0.13;100.00;101383.66;10423307;28;20056;-78
2023/12/07 20:25:35;;;;;;;115.10;38.80;;;;;;;-0.18;100.00;101374.41;10411695;28;20060;-76
2023/12/07 20:30:35;;;;;;;106.63;38.73;;;;;;;-0.22;100.00;101363.91;10409507;28;20037;-76
2023/12/07 20:35:37;;;;;;;120.70;36.73;;;;;;;-0.25;100.00;101344.44;10406232;28;20045;-76
2023/12/07 20:40:38;;;;;;;113.47;37.27;;;;;;;-0.33;100.00;101337.22;10406446;28;20049;-76
2023/12/07 20:45:38;;;;;;;110.57;36.60;;;;;;;-0.31;100.00;101329.75;10407717;28;20037;-76
2023/12/07 20:50:39;;;;;;;117.13;38.67;;;;;;;-0.33;100.00;101315.56;10422937;28;20045;-76
2023/12/07 20:55:39;;;;;;;110.23;36.40;;;;;;;-0.52;100.00;101287.00;10406771;28;20037;-76
2023/12/07 21:00:39;;;;;;;121.00;39.63;;;;;;;-0.37;100.00;101310.63;10406258;28;20048;-76
2023/12/07 21:05:40;;;;;;;114.80;37.27;;;;;;;-0.39;100.00;101308.13;10425161;28;20630;-76
2023/12/07 21:10:40;;;;;;;111.10;37.83;;;;;;;-0.43;100.00;101302.22;10406836;28;20045;-76
2023/12/07 21:15:41;;;;;;;104.53;36.80;;;;;;;-0.53;100.00;101288.03;10423672;28;20453;-76
2023/12/07 21:20:41;;;;;;;107.53;36.27;;;;;;;-0.54;100.00;101283.63;10406730;28;20041;-75
2023/12/07 21:25:42;;;;;;;104.37;36.37;;;;;;;-0.57;100.00;101283.13;10405913;28;20036;-76
2023/12/07 21:30:43;;;;;;;114.63;38.10;;;;;;;-0.59;100.00;101268.94;10408178;28;20064;-76
2023/12/07 21:35:43;;;;;;;105.10;37.27;;;;;;;-0.64;100.00;101259.47;10399471;28;20048;-76
2023/12/07 21:40:44;;;;;;;92.90;33.37;;;;;;;-0.63;100.00;101250.34;10420107;28;20025;-76
2023/12/07 21:45:44;;;;;;;105.60;34.67;;;;;;;-0.64;100.00;101235.16;10403891;28;20044;-76
2023/12/07 21:50:46;;;;;;;107.87;34.60;;;;;;;-0.80;100.00;101191.91;10404801;28;20071;-76
2023/12/07 21:55:46;;;;;;;91.18;32.70;;;;;;;-0.74;100.00;101196.63;10402428;28;20041;-77
2023/12/07 22:00:47;;;;;;;89.20;34.93;;;;;;;-0.68;100.00;101198.66;10401756;28;25679;-76
2023/12/07 22:05:48;;;;;;;98.30;32.93;;;;;;;-0.78;100.00;101173.66;10402588;28;20033;-75
2023/12/07 22:10:49;;;;;;;88.07;31.57;;;;;;;-0.62;100.00;101200.66;10425245;28;20522;-75
2023/12/07 22:15:49;;;;;;;89.60;30.77;;;;;;;-0.64;100.00;101185.59;10419658;28;20118;-75
2023/12/07 22:20:50;;;;;;;76.23;29.67;;;;;;;-0.55;100.00;101205.38;10396823;28;20052;-76
2023/12/07 22:25:51;;;;;;;86.57;31.93;;;;;;;-0.51;100.00;101202.16;10405298;28;20080;-76
2023/12/07 22:30:52;;;;;;;87.30;30.47;;;;;;;-0.47;100.00;101184.56;10410844;28;20036;-76